LVWOO ZZZZ-SADF
Flight info
| Callsign | LVWOO |
|---|---|
| Flight time | N/A |
| Altitude | 1000 |
| Route | DCT |
| Aircraft | B06/L-SDV/S |
Departure
| Time | N/A |
|---|---|
| Airport | ZZZZ |
Arrival
| Time | 2026-05-04 01:22 |
|---|---|
| Airport | San Fernando Airport (SADF) |
| Time | Latitude | Longitude | Altitude | Speed | Heading |
|---|---|---|---|---|---|
| 2026-05-04 00:58 | -34.68030 | -59.03458 | 93 ft | 0 kts | 73° |
| 2026-05-04 01:03 | -34.68034 | -59.03448 | 108 ft | 8 kts | 40° |
| 2026-05-04 01:03 | -34.68019 | -59.03417 | 93 ft | 5 kts | 302° |
| 2026-05-04 01:04 | -34.68018 | -59.03419 | 92 ft | 0 kts | 300° |
| 2026-05-04 01:04 | -34.68017 | -59.03420 | 93 ft | 2 kts | 306° |
| 2026-05-04 01:04 | -34.68005 | -59.03493 | 121 ft | 13 kts | 174° |
| 2026-05-04 01:05 | -34.68119 | -59.03367 | 211 ft | 54 kts | 100° |
| 2026-05-04 01:05 | -34.68149 | -59.02756 | 341 ft | 83 kts | 83° |
| 2026-05-04 01:05 | -34.67999 | -59.02043 | 418 ft | 91 kts | 64° |
| 2026-05-04 01:05 | -34.67893 | -59.01266 | 522 ft | 94 kts | 85° |
| 2026-05-04 01:06 | -34.67930 | -59.00449 | 591 ft | 96 kts | 83° |
| 2026-05-04 01:06 | -34.67827 | -58.99649 | 663 ft | 95 kts | 73° |
| 2026-05-04 01:06 | -34.67664 | -58.98853 | 733 ft | 96 kts | 70° |
| 2026-05-04 01:06 | -34.67462 | -58.98061 | 761 ft | 98 kts | 67° |
| 2026-05-04 01:07 | -34.67222 | -58.97284 | 789 ft | 98 kts | 66° |
| 2026-05-04 01:07 | -34.67103 | -58.96460 | 818 ft | 100 kts | 86° |
| 2026-05-04 01:07 | -34.67104 | -58.95610 | 865 ft | 98 kts | 81° |
| 2026-05-04 01:07 | -34.67028 | -58.94774 | 883 ft | 100 kts | 78° |
| 2026-05-04 01:08 | -34.66930 | -58.93944 | 899 ft | 99 kts | 75° |
| 2026-05-04 01:08 | -34.66809 | -58.93105 | 918 ft | 100 kts | 76° |
| 2026-05-04 01:08 | -34.66697 | -58.92272 | 935 ft | 100 kts | 77° |
| 2026-05-04 01:08 | -34.66587 | -58.91418 | 946 ft | 101 kts | 77° |
| 2026-05-04 01:09 | -34.66472 | -58.90582 | 954 ft | 101 kts | 75° |
| 2026-05-04 01:09 | -34.66347 | -58.89738 | 966 ft | 100 kts | 76° |
| 2026-05-04 01:09 | -34.66231 | -58.88892 | 976 ft | 101 kts | 76° |
| 2026-05-04 01:09 | -34.66110 | -58.88063 | 989 ft | 100 kts | 75° |
| 2026-05-04 01:10 | -34.65970 | -58.87217 | 999 ft | 101 kts | 74° |
| 2026-05-04 01:10 | -34.65831 | -58.86382 | 1012 ft | 100 kts | 73° |
| 2026-05-04 01:10 | -34.65680 | -58.85552 | 1014 ft | 102 kts | 75° |
| 2026-05-04 01:10 | -34.65599 | -58.84680 | 984 ft | 104 kts | 79° |
| 2026-05-04 01:11 | -34.65507 | -58.83806 | 1001 ft | 101 kts | 78° |
| 2026-05-04 01:11 | -34.65416 | -58.82971 | 1036 ft | 100 kts | 77° |
| 2026-05-04 01:11 | -34.65326 | -58.82126 | 1077 ft | 99 kts | 77° |
| 2026-05-04 01:11 | -34.65228 | -58.81303 | 1114 ft | 99 kts | 76° |
| 2026-05-04 01:12 | -34.65076 | -58.80483 | 1151 ft | 98 kts | 63° |
| 2026-05-04 01:12 | -34.64641 | -58.79838 | 1123 ft | 102 kts | 36° |
| 2026-05-04 01:12 | -34.64053 | -58.79312 | 1006 ft | 105 kts | 32° |
| 2026-05-04 01:12 | -34.63481 | -58.78794 | 984 ft | 101 kts | 36° |
| 2026-05-04 01:13 | -34.62946 | -58.78234 | 975 ft | 101 kts | 41° |
| 2026-05-04 01:13 | -34.62443 | -58.77619 | 908 ft | 104 kts | 46° |
| 2026-05-04 01:13 | -34.61973 | -58.76955 | 899 ft | 101 kts | 47° |
| 2026-05-04 01:13 | -34.61538 | -58.76311 | 951 ft | 97 kts | 47° |
| 2026-05-04 01:14 | -34.61095 | -58.75691 | 1004 ft | 96 kts | 46° |
| 2026-05-04 01:14 | -34.60651 | -58.75051 | 990 ft | 100 kts | 47° |
| 2026-05-04 01:14 | -34.60215 | -58.74404 | 1022 ft | 98 kts | 47° |
| 2026-05-04 01:14 | -34.59767 | -58.73780 | 1050 ft | 98 kts | 45° |
| 2026-05-04 01:15 | -34.59295 | -58.73167 | 1065 ft | 99 kts | 43° |
| 2026-05-04 01:15 | -34.58822 | -58.72541 | 1063 ft | 100 kts | 46° |
| 2026-05-04 01:15 | -34.58366 | -58.71892 | 1063 ft | 100 kts | 46° |
| 2026-05-04 01:15 | -34.57899 | -58.71263 | 1042 ft | 102 kts | 44° |
| 2026-05-04 01:16 | -34.57417 | -58.70619 | 1028 ft | 102 kts | 45° |
| 2026-05-04 01:16 | -34.56961 | -58.69950 | 998 ft | 103 kts | 49° |
| 2026-05-04 01:16 | -34.56539 | -58.69267 | 1032 ft | 99 kts | 50° |
| 2026-05-04 01:16 | -34.56132 | -58.68604 | 1092 ft | 97 kts | 50° |
| 2026-05-04 01:17 | -34.55730 | -58.67949 | 1158 ft | 97 kts | 50° |
| 2026-05-04 01:17 | -34.55316 | -58.67270 | 1115 ft | 104 kts | 52° |
| 2026-05-04 01:17 | -34.54917 | -58.66517 | 1057 ft | 105 kts | 56° |
| 2026-05-04 01:17 | -34.54481 | -58.65827 | 1048 ft | 102 kts | 42° |
| 2026-05-04 01:18 | -34.53984 | -58.65247 | 1104 ft | 98 kts | 42° |
| 2026-05-04 01:18 | -34.53463 | -58.64730 | 1167 ft | 96 kts | 30° |
| 2026-05-04 01:18 | -34.52860 | -58.64314 | 1130 ft | 102 kts | 30° |
| 2026-05-04 01:18 | -34.52255 | -58.63815 | 1050 ft | 104 kts | 31° |
| 2026-05-04 01:19 | -34.51665 | -58.63322 | 1013 ft | 103 kts | 31° |
| 2026-05-04 01:19 | -34.51062 | -58.62817 | 921 ft | 106 kts | 32° |
| 2026-05-04 01:19 | -34.50460 | -58.62297 | 838 ft | 105 kts | 31° |
| 2026-05-04 01:19 | -34.49848 | -58.61816 | 801 ft | 103 kts | 28° |
| 2026-05-04 01:20 | -34.49228 | -58.61400 | 762 ft | 103 kts | 23° |
| 2026-05-04 01:20 | -34.48577 | -58.61048 | 724 ft | 103 kts | 22° |
| 2026-05-04 01:20 | -34.47926 | -58.60681 | 669 ft | 103 kts | 25° |
| 2026-05-04 01:20 | -34.47297 | -58.60269 | 656 ft | 101 kts | 30° |
| 2026-05-04 01:21 | -34.46686 | -58.59843 | 572 ft | 100 kts | 25° |
| 2026-05-04 01:21 | -34.46132 | -58.59441 | 390 ft | 87 kts | 33° |
| 2026-05-04 01:21 | -34.45712 | -58.59009 | 215 ft | 73 kts | 41° |
| 2026-05-04 01:21 | -34.45427 | -58.58578 | 120 ft | 56 kts | 55° |
| 2026-05-04 01:22 | -34.45242 | -58.58258 | 70 ft | 38 kts | 52° |
| 2026-05-04 01:22 | -34.45155 | -58.58104 | 31 ft | 11 kts | 62° |
| 2026-05-04 01:22 | -34.45138 | -58.58069 | 11 ft | 1 kts | 56° |
| 2026-05-04 01:22 | -34.45134 | -58.58060 | 11 ft | 0 kts | 60° |